SBOSBO RHO / LGRP
Speedbird OnlineSpeedbird Online RHO / LGRP

Diagoras Airport
10:38 23°C

Location Rhodos, Greece
Latitude: 36.405399322509766
Longitude: 28.086200714111328
Web Wikipedia
Altitude 5 Meter / 17 Feet
Distance 2,770 KM / 1,721 Miles
from London.
Time Zone UTC +3 hours (Europe/Athens)
Codes IATA: RHO
ICAO: LGRP
Currency £1 equals EUR 1.15
Runways
RunwayLength (m)Surface
063306Asphalt
243306Asphalt
Radio
TypeDescriptionFrequency
A/GRDO563.7
APPRODOS APP118.25
ATISATIS126.35
GNDGND121.7
TWRTWR118.2
Live ATC
METAR LGRP 060720Z 31007KT 9999 FEW020 23/15 Q1015 NOSIG
TAF TAF LGRP 060500Z 0606/0706 VRB03KT 9999 FEW020 TEMPO 0612/0619 25010KT SCT020
Weather As Of 06 Oct 2022 10:38
Description Few clouds
Wind 13 km/h from North-West (310°)
Cloud Cover 20%
Precipitation Rain: none, Snow: none
Sunrise 07:06
Sunset 18:44
Lounges Skyserv Lounge (Temporarily Closed), Main Terminal
Rotations During the last 90 days there were
48 flights from LHR
25 flights from LGW
1 flights from ATH
49 flights to LHR
25 flights to LGW


© 2017-2022 Speedbird Online